Terminal Aerodrome Forecast
Issued by NWS Wilmington, OH

Home | Current Version | Previous Version | Text Only | Print | Product List | Glossary On
Versions: 1 2 3 4 5 6 7 8 9 10 11 12 13 14 15 16
000
FTUS41 KILN 271800 AAA
TAFILN
TAF AMD
KILN 271831Z 2719/2818 33007KT P6SM SCT035
      TEMPO 2719/2722 BKN035
     FM280000 00000KT P6SM SCT200
     FM280700 07004KT P6SM BKN100
     FM281600 11007KT P6SM BKN060=

USA.gov is the U.S. government's official web portal to all federal, state and local government web resources and services.